»·PEaware :: N972MK KHII-KPRC

N972MK :: KHII-KPRC

FLIGHT INFORMATION

Flight Status: Arrived
Operator: Privately registered:
United States
More flights under this callsign
Pilot: Martin K. (31672)
Aircraft: PIPER PA-24 COMMANCHE
(PA24)
More flights by this aircraft type
Origin: KHII Lake Havasu City
United States
Destination: KPRC Love
United States
More flights between these airports :: More routes between these airports
Route:
File this flight plan on PilotEdge
Remarks:
Altitude:
(Current/Filed)
9,500ft
Speed:
(Current/Filed)
150kts
Departed: 27-Sep-23 10:41 AM
Arrived: 27-Sep-23 11:29 AM
Distance/Time
Traveled:
96nm/0:48
Distance/Time
To Go:
Arrived

Flight Plot

Page will automatically refresh every two minutes.

Flight plan parsing failed; only flown route is shown


Map Options




Map Legend


Flown Route
Filed Route
Departure Airport
Arrival Airport
Navaid (VOR, NDB)
Fix

Horizontal Profiles

Position Reports

Time Latitude Longitude Heading Altitude Ground
Speed
27-Sep-23 10:26 34.569658 -114.359584 60 770ft 0kts
27-Sep-23 10:27 34.569658 -114.359584 60 770ft 0kts
27-Sep-23 10:28 34.569658 -114.359584 60 770ft 0kts
27-Sep-23 10:29 34.569658 -114.359584 60 770ft 0kts
27-Sep-23 10:30 34.569658 -114.359584 60 770ft 0kts
27-Sep-23 10:31 34.569658 -114.359584 60 770ft 0kts
27-Sep-23 10:32 34.569658 -114.359584 60 770ft 0kts
27-Sep-23 10:33 34.569658 -114.359584 60 770ft 0kts
27-Sep-23 10:34 34.569658 -114.359584 60 770ft 0kts
27-Sep-23 10:35 34.569658 -114.359584 60 770ft 0kts
27-Sep-23 10:36 34.569686 -114.359524 61 770ft 3kts
27-Sep-23 10:37 34.567496 -114.357037 150 774ft 15kts
27-Sep-23 10:38 34.563871 -114.354463 149 781ft 16kts
27-Sep-23 10:39 34.561379 -114.352417 65 785ft 4kts
27-Sep-23 10:40 34.573825 -114.359969 334 1101ft 80kts
27-Sep-23 10:41 34.571781 -114.369783 151 1846ft 94kts
27-Sep-23 10:42 34.548679 -114.354350 152 2370ft 94kts
27-Sep-23 10:43 34.546307 -114.325501 80 2923ft 93kts
27-Sep-23 10:44 34.544671 -114.294744 108 3445ft 93kts
27-Sep-23 10:45 34.533877 -114.266665 120 4036ft 93kts
27-Sep-23 10:46 34.522003 -114.237715 109 4540ft 97kts
27-Sep-23 10:47 34.523411 -114.204938 80 5172ft 100kts
27-Sep-23 10:48 34.529508 -114.171752 78 5808ft 100kts
27-Sep-23 10:49 34.535835 -114.138235 78 6412ft 102kts
27-Sep-23 10:50 34.541975 -114.104228 78 6962ft 102kts
27-Sep-23 10:51 34.548441 -114.069739 78 7551ft 105kts
27-Sep-23 10:52 34.555035 -114.034191 78 8115ft 108kts
27-Sep-23 10:53 34.561797 -113.998206 78 8686ft 110kts
27-Sep-23 10:54 34.568859 -113.961336 82 9242ft 113kts
27-Sep-23 10:55 34.571562 -113.920872 91 9513ft 133kts
27-Sep-23 10:56 34.572400 -113.872006 91 9513ft 152kts
27-Sep-23 10:57 34.572766 -113.819461 92 9514ft 157kts
27-Sep-23 10:58 34.572619 -113.765959 92 9514ft 158kts
27-Sep-23 10:59 34.572474 -113.712424 91 9516ft 159kts
27-Sep-23 11:00 34.572543 -113.658599 92 9516ft 159kts
27-Sep-23 11:01 34.572636 -113.604737 92 9516ft 161kts
27-Sep-23 11:02 34.572783 -113.550443 91 9513ft 160kts
27-Sep-23 11:03 34.572237 -113.496447 93 9515ft 159kts
27-Sep-23 11:04 34.572281 -113.442239 91 9528ft 161kts
27-Sep-23 11:05 34.571956 -113.387440 91 9520ft 161kts
27-Sep-23 11:06 34.572106 -113.333236 94 9520ft 160kts
27-Sep-23 11:07 34.572280 -113.278754 93 9525ft 162kts
27-Sep-23 11:08 34.571865 -113.224125 90 9528ft 161kts
27-Sep-23 11:09 34.571065 -113.169793 92 9533ft 161kts
27-Sep-23 11:10 34.571069 -113.113946 89 9324ft 173kts
27-Sep-23 11:11 34.570668 -113.057322 91 9218ft 164kts
27-Sep-23 11:12 34.570096 -113.001225 91 9231ft 162kts
27-Sep-23 11:13 34.570296 -112.947143 91 9066ft 161kts
27-Sep-23 11:14 34.569728 -112.891304 93 8394ft 167kts
27-Sep-23 11:15 34.569372 -112.836670 94 7940ft 160kts
27-Sep-23 11:16 34.572495 -112.783515 89 7573ft 152kts
27-Sep-23 11:17 34.573493 -112.732121 94 7467ft 153kts
27-Sep-23 11:18 34.573792 -112.680523 94 7505ft 155kts
27-Sep-23 11:19 34.574179 -112.627855 92 7533ft 158kts
27-Sep-23 11:20 34.574496 -112.572872 94 7567ft 162kts
27-Sep-23 11:21 34.566651 -112.520840 122 7579ft 155kts
27-Sep-23 11:22 34.556776 -112.473348 79 7585ft 151kts
27-Sep-23 11:23 34.579397 -112.430410 25 7374ft 161kts
27-Sep-23 11:24 34.622125 -112.420632 16 6653ft 148kts
27-Sep-23 11:25 34.649957 -112.396636 44 6161ft 116kts
27-Sep-23 11:26 34.671973 -112.396912 265 5527ft 105kts
27-Sep-23 11:27 34.655268 -112.418678 220 4998ft 52kts
27-Sep-23 11:28 34.648521 -112.424316 148 5022ft 13kts
27-Sep-23 11:29 34.646666 -112.424397 41 5024ft 0kts

Navigation Log

Ident Type
Flight plan parsing failed, navigation log unavailable